Terminal Aerodrome Forecast
Issued by NWS Mt. Holly, NJ

Home | Current Version | Previous Version | Text Only | Print | Product List | Glossary On
Versions: 1 2 3 4 5 6 7 8 9 10 11 12 13 14 15 16 17 18 19
000
FTUS41 KPHI 011400 AAA
TAFACY
TAF AMD
KACY 011420Z 0114/0212 03008KT P6SM OVC012
      TEMPO 0114/0116 5SM -DZ
     FM011700 02011KT P6SM SCT015 OVC040
      TEMPO 0117/0119 BKN015
     FM020000 02006KT P6SM BKN040
     FM020500 01006KT P6SM BKN012=

USA.gov is the U.S. government's official web portal to all federal, state and local government web resources and services.